createdAt,value
2024-03-09T00:00:42.040Z,0.09
2024-03-09T00:03:09.807Z,0.46
2024-03-09T00:05:37.309Z,0.76
2024-03-09T00:08:06.350Z,1.03
2024-03-09T00:10:33.686Z,1.22
2024-03-09T00:13:01.043Z,0.74
2024-03-09T00:15:29.758Z,1.17
2024-03-09T00:17:57.919Z,1.21
2024-03-09T00:20:29.386Z,0.76
2024-03-09T00:22:59.163Z,1.04
2024-03-09T00:25:30.577Z,0.68
2024-03-09T00:27:58.915Z,0.58
2024-03-09T00:30:31.357Z,0.55
2024-03-09T00:33:00.787Z,0.87
2024-03-09T00:35:31.819Z,0.58
2024-03-09T00:38:00.551Z,0.78
2024-03-09T00:40:31.495Z,0.67
2024-03-09T00:43:00.573Z,0.54
2024-03-09T00:45:28.041Z,0.49
2024-03-09T00:47:55.440Z,0.41
2024-03-09T00:50:23.171Z,0.44
2024-03-09T00:52:50.726Z,0.65
2024-03-09T00:55:18.065Z,0.55
2024-03-09T00:57:46.595Z,0.26
2024-03-09T01:00:17.831Z,0.33
2024-03-09T01:02:48.674Z,0.52
2024-03-09T01:05:28.226Z,0.58
2024-03-09T01:07:56.154Z,0.31
2024-03-09T01:10:23.464Z,0.69
2024-03-09T01:12:51.235Z,0.56
2024-03-09T01:15:20.302Z,0.41
2024-03-09T01:17:47.639Z,0.34
2024-03-09T01:20:15.898Z,0.36
2024-03-09T01:22:46.425Z,0.36
2024-03-09T01:25:14.451Z,0.36
2024-03-09T01:27:42.098Z,0.39
2024-03-09T01:30:10.703Z,0.39
2024-03-09T01:32:42.032Z,0.30
2024-03-09T01:35:10.814Z,0.41
2024-03-09T01:37:38.632Z,0.63
2024-03-09T01:40:07.884Z,0.90
2024-03-09T01:42:35.335Z,0.52
2024-03-09T01:45:07.068Z,0.61
2024-03-09T01:47:35.278Z,0.70
2024-03-09T01:50:02.773Z,0.66
2024-03-09T01:52:34.510Z,0.51
2024-03-09T01:55:05.580Z,0.58
2024-03-09T01:57:34.377Z,0.35
2024-03-09T02:00:01.894Z,0.52
2024-03-09T02:02:34.116Z,0.68
2024-03-09T02:05:04.785Z,0.78
2024-03-09T02:07:34.737Z,0.83
2024-03-09T02:10:02.043Z,0.82
2024-03-09T02:12:29.465Z,1.03
2024-03-09T02:14:56.641Z,1.05
2024-03-09T02:17:25.623Z,0.59
2024-03-09T02:19:53.326Z,0.65
2024-03-09T02:22:20.652Z,0.85
2024-03-09T02:24:53.810Z,0.90
2024-03-09T02:27:22.174Z,1.04
2024-03-09T02:29:49.349Z,1.10
2024-03-09T02:32:17.259Z,0.85
2024-03-09T02:34:44.519Z,1.31
2024-03-09T02:37:11.638Z,0.94
2024-03-09T02:39:38.927Z,0.61
2024-03-09T02:42:06.277Z,0.81
2024-03-09T02:44:33.559Z,0.70
2024-03-09T02:47:00.773Z,0.96
2024-03-09T02:49:28.233Z,0.78
2024-03-09T02:51:55.540Z,0.77
2024-03-09T02:54:24.445Z,0.95
2024-03-09T02:56:51.728Z,1.08
2024-03-09T02:59:19.785Z,0.94
2024-03-09T03:01:49.886Z,0.93
2024-03-09T03:04:17.142Z,1.04
2024-03-09T03:06:45.164Z,1.03
2024-03-09T03:09:13.509Z,1.07
2024-03-09T03:11:44.142Z,1.26
2024-03-09T03:14:12.042Z,0.89
2024-03-09T03:16:39.896Z,1.08
2024-03-09T03:19:08.019Z,1.24
2024-03-09T03:21:35.748Z,1.09
2024-03-09T03:24:03.621Z,0.91
2024-03-09T03:26:33.728Z,0.83
2024-03-09T03:29:03.142Z,1.08
2024-03-09T03:31:31.004Z,1.02
2024-03-09T03:33:58.439Z,0.89
2024-03-09T03:36:25.910Z,0.96
2024-03-09T03:38:53.173Z,0.83
2024-03-09T03:41:23.730Z,0.94
2024-03-09T03:43:51.868Z,1.14
2024-03-09T03:46:19.387Z,1.34
2024-03-09T03:48:47.581Z,1.26
2024-03-09T03:51:15.954Z,1.08
2024-03-09T03:53:44.402Z,0.98
2024-03-09T03:56:13.546Z,0.99
2024-03-09T03:58:43.299Z,1.31
2024-03-09T04:01:11.185Z,1.38
2024-03-09T04:03:39.300Z,1.19
2024-03-09T04:06:07.616Z,0.88
2024-03-09T04:08:35.288Z,1.10
2024-03-09T04:11:04.434Z,0.91
2024-03-09T04:13:32.252Z,0.86
2024-03-09T04:15:59.911Z,0.96
2024-03-09T04:18:35.005Z,0.87
2024-03-09T04:21:03.790Z,1.14
2024-03-09T04:23:31.456Z,0.76
2024-03-09T04:25:58.741Z,0.91
2024-03-09T04:28:29.525Z,1.02
2024-03-09T04:30:58.251Z,0.78
2024-03-09T04:33:26.358Z,0.95
2024-03-09T04:35:54.829Z,1.16
2024-03-09T04:38:22.381Z,1.00
2024-03-09T04:40:52.740Z,0.98
2024-03-09T04:43:20.308Z,1.22
2024-03-09T04:45:47.847Z,1.21
2024-03-09T04:48:15.826Z,1.12
2024-03-09T04:50:48.849Z,0.92
2024-03-09T04:53:18.479Z,1.04
2024-03-09T04:55:49.894Z,0.99
2024-03-09T04:58:19.395Z,1.19
2024-03-09T05:00:46.894Z,1.19
2024-03-09T05:03:14.598Z,1.21
2024-03-09T05:05:42.393Z,1.23
2024-03-09T05:08:10.050Z,1.78
2024-03-09T05:10:40.311Z,1.74
2024-03-09T05:13:09.148Z,1.97
2024-03-09T05:15:37.517Z,2.07
2024-03-09T05:18:09.868Z,2.02
2024-03-09T05:20:38.346Z,2.01
2024-03-09T05:23:11.907Z,1.98
2024-03-09T05:25:42.847Z,2.32
2024-03-09T05:28:15.849Z,2.02
2024-03-09T05:30:45.302Z,2.35
2024-03-09T05:33:13.609Z,2.28
2024-03-09T05:35:41.438Z,2.12
2024-03-09T05:38:10.645Z,2.68
2024-03-09T05:40:38.953Z,2.96
2024-03-09T05:43:09.415Z,3.07
2024-03-09T05:45:37.606Z,2.90
2024-03-09T05:48:05.288Z,2.81
2024-03-09T05:50:33.604Z,2.74
2024-03-09T05:53:02.033Z,3.15
2024-03-09T05:55:29.994Z,2.93
2024-03-09T05:57:57.881Z,3.11
2024-03-09T06:00:30.889Z,3.03
2024-03-09T06:02:59.613Z,3.27
2024-03-09T06:05:31.102Z,3.29
2024-03-09T06:07:59.082Z,3.28
2024-03-09T06:10:27.391Z,3.58
2024-03-09T06:12:54.974Z,3.63
2024-03-09T06:15:26.543Z,3.36
2024-03-09T06:17:57.622Z,3.62
2024-03-09T06:20:28.848Z,3.68
2024-03-09T06:22:58.165Z,4.16
2024-03-09T06:25:27.617Z,3.61
2024-03-09T06:27:55.889Z,3.70
2024-03-09T06:30:29.722Z,4.31
2024-03-09T06:33:00.475Z,4.30
2024-03-09T06:35:28.284Z,4.41
2024-03-09T06:38:02.694Z,4.51
2024-03-09T06:40:32.630Z,4.66
2024-03-09T06:43:00.945Z,4.47
2024-03-09T06:45:28.855Z,4.07
2024-03-09T06:47:59.347Z,4.25
2024-03-09T06:50:31.047Z,4.21
2024-03-09T06:53:00.151Z,4.23
2024-03-09T06:55:31.222Z,4.54
2024-03-09T06:58:03.744Z,4.78
2024-03-09T07:00:33.989Z,4.71
2024-03-09T07:03:01.217Z,4.53
2024-03-09T07:05:32.313Z,4.63
2024-03-09T07:08:01.114Z,4.70
2024-03-09T07:10:29.127Z,4.76
2024-03-09T07:12:56.849Z,4.45
2024-03-09T07:15:26.568Z,4.24
2024-03-09T07:17:57.199Z,4.74
2024-03-09T07:20:25.127Z,4.52
2024-03-09T07:22:52.968Z,4.58
2024-03-09T07:25:25.571Z,4.68
2024-03-09T07:27:57.826Z,4.66
2024-03-09T07:30:25.775Z,4.61
2024-03-09T07:32:56.107Z,4.99
2024-03-09T07:35:29.272Z,4.75
2024-03-09T07:38:00.585Z,5.05
2024-03-09T07:40:31.687Z,5.33
2024-03-09T07:42:59.210Z,5.42
2024-03-09T07:45:28.181Z,5.36
2024-03-09T07:47:55.951Z,5.65
2024-03-09T07:50:24.194Z,5.62
2024-03-09T07:52:56.108Z,6.30
2024-03-09T07:55:25.162Z,5.97
2024-03-09T07:58:05.242Z,6.16
2024-03-09T08:00:41.574Z,6.41
2024-03-09T08:03:08.829Z,5.96
2024-03-09T08:05:36.041Z,5.77
2024-03-09T08:08:05.156Z,5.74
2024-03-09T08:10:35.464Z,5.69
2024-03-09T08:13:02.873Z,5.59
2024-03-09T08:15:30.718Z,5.67
2024-03-09T08:17:58.380Z,5.61
2024-03-09T08:20:25.960Z,5.49
2024-03-09T08:22:55.866Z,6.17
2024-03-09T08:25:28.888Z,6.46
2024-03-09T08:27:56.829Z,6.62
2024-03-09T08:30:25.300Z,6.26
2024-03-09T08:33:00.376Z,6.35
2024-03-09T08:35:34.865Z,6.40
2024-03-09T08:38:02.655Z,6.48
2024-03-09T08:40:33.227Z,6.51
2024-03-09T08:43:01.179Z,6.35
2024-03-09T08:45:34.089Z,6.42
2024-03-09T08:48:01.353Z,6.57
2024-03-09T08:50:28.712Z,6.75
2024-03-09T08:52:57.435Z,7.03
2024-03-09T08:55:25.156Z,7.30
2024-03-09T08:57:52.635Z,7.14
2024-03-09T09:00:26.873Z,7.82
2024-03-09T09:02:58.001Z,7.63
2024-03-09T09:05:29.170Z,7.33
2024-03-09T09:07:57.608Z,7.70
2024-03-09T09:10:27.164Z,7.66
2024-03-09T09:12:56.052Z,8.32
2024-03-09T09:15:26.811Z,8.44
2024-03-09T09:17:56.949Z,8.41
2024-03-09T09:20:25.736Z,8.53
2024-03-09T09:22:55.545Z,8.71
2024-03-09T09:25:30.999Z,8.75
2024-03-09T09:28:02.977Z,9.39
2024-03-09T09:30:31.513Z,9.79
2024-03-09T09:32:59.487Z,9.60
2024-03-09T09:35:27.358Z,10.79
2024-03-09T09:37:55.018Z,10.60
2024-03-09T09:40:22.531Z,10.63
2024-03-09T09:42:49.880Z,10.72
2024-03-09T09:45:23.216Z,10.20
2024-03-09T09:47:50.913Z,10.28
2024-03-09T09:50:21.065Z,10.76
2024-03-09T09:52:52.710Z,10.90
2024-03-09T09:55:23.276Z,10.21
2024-03-09T09:57:53.923Z,10.21
2024-03-09T10:00:25.249Z,9.90
2024-03-09T10:02:59.089Z,9.98
2024-03-09T10:05:30.299Z,10.31
2024-03-09T10:08:06.111Z,10.77
2024-03-09T10:10:36.996Z,10.93
2024-03-09T10:13:15.092Z,11.59
2024-03-09T10:15:44.674Z,11.38
2024-03-09T10:18:13.201Z,11.38
2024-03-09T10:20:41.832Z,11.23
2024-03-09T10:23:13.286Z,11.76
2024-03-09T10:25:41.655Z,11.47
2024-03-09T10:28:10.118Z,11.84
2024-03-09T10:30:41.991Z,12.05
2024-03-09T10:33:13.598Z,12.08
2024-03-09T10:35:48.147Z,11.78
2024-03-09T10:38:16.071Z,11.70
2024-03-09T10:40:43.746Z,11.51
2024-03-09T10:43:12.750Z,11.66
2024-03-09T10:45:41.629Z,11.86
2024-03-09T10:48:11.242Z,11.84
2024-03-09T10:50:42.225Z,12.03
2024-03-09T10:53:10.447Z,12.43
2024-03-09T10:55:57.358Z,12.62
2024-03-09T10:58:26.314Z,12.61
2024-03-09T11:00:54.347Z,12.98
2024-03-09T11:03:25.158Z,12.69
2024-03-09T11:05:56.653Z,12.70
2024-03-09T11:08:24.967Z,13.07
2024-03-09T11:10:52.722Z,13.50
2024-03-09T11:13:20.254Z,13.15
2024-03-09T11:15:52.713Z,13.19
2024-03-09T11:18:23.528Z,13.30
2024-03-09T11:21:00.808Z,13.08
2024-03-09T11:23:36.269Z,13.11
2024-03-09T11:26:04.419Z,13.12
2024-03-09T11:28:44.538Z,13.14
2024-03-09T11:31:12.826Z,13.34
2024-03-09T11:33:58.739Z,12.98
2024-03-09T11:36:51.904Z,12.74
2024-03-09T11:39:23.801Z,12.60
2024-03-09T11:41:51.960Z,12.66
2024-03-09T11:44:21.946Z,12.61
2024-03-09T11:46:50.335Z,12.81
2024-03-09T11:49:18.021Z,12.87
2024-03-09T11:51:46.783Z,12.64
2024-03-09T11:54:15.727Z,12.89
2024-03-09T11:56:43.254Z,12.62
2024-03-09T11:59:12.419Z,12.57
2024-03-09T12:01:43.125Z,12.63
2024-03-09T12:04:11.712Z,12.75
2024-03-09T12:06:41.899Z,12.96
2024-03-09T12:09:12.669Z,12.75
2024-03-09T12:11:43.709Z,12.67
2024-03-09T12:14:11.183Z,12.55
2024-03-09T12:16:38.968Z,12.48
2024-03-09T12:19:07.662Z,12.37
2024-03-09T12:21:38.465Z,12.63
2024-03-09T12:24:07.945Z,12.28
2024-03-09T12:26:35.318Z,11.98
2024-03-09T12:29:07.238Z,12.33
2024-03-09T12:31:35.616Z,12.45
2024-03-09T12:34:06.628Z,11.87
2024-03-09T12:36:35.249Z,11.88
2024-03-09T12:39:11.068Z,12.01
2024-03-09T12:41:39.182Z,11.81
2024-03-09T12:44:07.830Z,11.82
2024-03-09T12:46:35.886Z,11.93
2024-03-09T12:49:09.821Z,11.99
2024-03-09T12:51:38.640Z,11.89
2024-03-09T12:54:09.636Z,11.85
2024-03-09T12:56:37.620Z,11.70
2024-03-09T12:59:05.939Z,11.40
2024-03-09T13:01:34.151Z,11.40
2024-03-09T13:04:09.042Z,11.84
2024-03-09T13:06:37.647Z,11.04
2024-03-09T13:09:05.153Z,11.26
2024-03-09T13:11:34.075Z,11.10
2024-03-09T13:14:02.245Z,10.96
2024-03-09T13:16:29.866Z,11.29
2024-03-09T13:18:57.091Z,10.73
2024-03-09T13:21:24.707Z,11.09
2024-03-09T13:23:57.419Z,11.02
2024-03-09T13:26:25.383Z,10.79
2024-03-09T13:28:54.285Z,10.89
2024-03-09T13:31:24.409Z,10.67
2024-03-09T13:33:51.820Z,10.69
2024-03-09T13:36:23.898Z,10.69
2024-03-09T13:38:51.897Z,10.80
2024-03-09T13:41:20.489Z,10.46
2024-03-09T13:43:48.002Z,10.42
2024-03-09T13:46:15.387Z,10.54
2024-03-09T13:48:44.342Z,10.44
2024-03-09T13:51:15.195Z,10.61
2024-03-09T13:53:44.106Z,10.37
2024-03-09T13:56:21.106Z,10.39
2024-03-09T13:58:49.481Z,10.67
2024-03-09T14:01:21.198Z,10.99
2024-03-09T14:03:49.178Z,10.54
2024-03-09T14:06:19.321Z,10.83
2024-03-09T14:08:47.134Z,10.58
2024-03-09T14:11:18.712Z,10.48
2024-03-09T14:13:49.409Z,10.42
2024-03-09T14:16:22.296Z,10.37
2024-03-09T14:18:52.210Z,10.28
2024-03-09T14:21:25.183Z,10.36
2024-03-09T14:23:58.969Z,10.15
2024-03-09T14:26:26.757Z,10.14
2024-03-09T14:28:59.890Z,9.97
2024-03-09T14:31:35.964Z,10.02
2024-03-09T14:34:04.437Z,10.04
2024-03-09T14:36:34.571Z,9.98
2024-03-09T14:39:02.212Z,10.04
2024-03-09T14:41:29.965Z,10.02
2024-03-09T14:43:57.628Z,10.08
2024-03-09T14:46:25.137Z,9.88
2024-03-09T14:48:55.003Z,9.84
2024-03-09T14:51:23.888Z,9.85
2024-03-09T14:53:51.583Z,9.82
2024-03-09T14:56:19.205Z,9.70
2024-03-09T14:58:47.758Z,9.53
2024-03-09T15:01:27.742Z,9.58
2024-03-09T15:03:56.079Z,9.71
2024-03-09T15:06:24.477Z,9.39
2024-03-09T15:08:59.803Z,9.46
2024-03-09T15:11:27.791Z,9.40
2024-03-09T15:13:58.337Z,9.46
2024-03-09T15:16:28.870Z,9.64
2024-03-09T15:18:56.977Z,9.50
2024-03-09T15:21:27.737Z,9.55
2024-03-09T15:23:56.892Z,9.23
2024-03-09T15:26:28.655Z,9.23
2024-03-09T15:28:59.300Z,8.95
2024-03-09T15:31:28.507Z,9.08
2024-03-09T15:33:57.044Z,9.34
2024-03-09T15:36:25.690Z,9.30
2024-03-09T15:38:54.754Z,9.61
2024-03-09T15:41:22.198Z,9.18
2024-03-09T15:43:51.318Z,9.44
2024-03-09T15:46:20.377Z,9.27
2024-03-09T15:48:49.362Z,9.24
2024-03-09T15:51:19.684Z,8.90
2024-03-09T15:53:47.770Z,9.19
2024-03-09T15:56:21.618Z,9.04
2024-03-09T15:58:49.609Z,8.83
2024-03-09T16:01:23.449Z,8.79
2024-03-09T16:03:51.353Z,8.70
2024-03-09T16:06:18.767Z,8.77
2024-03-09T16:08:46.206Z,8.81
2024-03-09T16:11:13.638Z,8.62
2024-03-09T16:13:41.127Z,8.69
2024-03-09T16:16:08.963Z,8.88
2024-03-09T16:18:36.735Z,8.87
2024-03-09T16:21:10.662Z,8.68
2024-03-09T16:23:38.784Z,8.93
2024-03-09T16:26:07.934Z,9.05
2024-03-09T16:28:38.281Z,8.77
2024-03-09T16:31:06.365Z,8.43
2024-03-09T16:33:34.401Z,8.47
2024-03-09T16:36:03.756Z,8.61
2024-03-09T16:38:31.714Z,8.90
2024-03-09T16:41:03.104Z,9.02
2024-03-09T16:43:36.102Z,8.71
2024-03-09T16:46:07.865Z,8.36
2024-03-09T16:48:37.161Z,8.44
2024-03-09T16:51:08.801Z,8.52
2024-03-09T16:53:40.665Z,8.48
2024-03-09T16:56:10.342Z,8.33
2024-03-09T16:58:40.746Z,8.30
2024-03-09T17:01:08.579Z,8.24
2024-03-09T17:03:35.932Z,8.61
2024-03-09T17:06:08.937Z,8.50
2024-03-09T17:08:37.766Z,8.30
2024-03-09T17:11:11.926Z,8.46
2024-03-09T17:13:43.098Z,8.74
2024-03-09T17:16:12.311Z,8.25
2024-03-09T17:18:40.081Z,8.20
2024-03-09T17:21:07.749Z,8.05
2024-03-09T17:23:34.998Z,7.77
2024-03-09T17:26:02.363Z,8.04
2024-03-09T17:28:29.936Z,8.34
2024-03-09T17:30:57.860Z,8.14
2024-03-09T17:33:26.928Z,8.45
2024-03-09T17:35:54.485Z,8.29
2024-03-09T17:38:22.601Z,8.15
2024-03-09T17:40:50.327Z,8.52
2024-03-09T17:43:17.730Z,8.46
2024-03-09T17:45:46.972Z,8.34
2024-03-09T17:48:14.748Z,8.14
2024-03-09T17:50:43.454Z,8.39
2024-03-09T17:53:11.065Z,8.18
2024-03-09T17:55:38.633Z,7.96
2024-03-09T17:58:09.997Z,8.18
2024-03-09T18:00:40.204Z,7.92
2024-03-09T18:03:11.596Z,7.91
2024-03-09T18:05:39.442Z,7.99
2024-03-09T18:08:11.835Z,7.95
2024-03-09T18:10:41.741Z,7.78
2024-03-09T18:13:12.398Z,7.77
2024-03-09T18:15:46.910Z,7.62
2024-03-09T18:18:14.924Z,7.45
2024-03-09T18:20:43.418Z,7.45
2024-03-09T18:23:12.158Z,7.40
2024-03-09T18:25:41.263Z,7.30
2024-03-09T18:28:09.111Z,7.43
2024-03-09T18:30:37.494Z,7.60
2024-03-09T18:33:10.554Z,7.49
2024-03-09T18:35:39.128Z,7.53
2024-03-09T18:38:07.864Z,7.36
2024-03-09T18:40:35.650Z,7.28
2024-03-09T18:43:04.028Z,7.29
2024-03-09T18:45:34.588Z,7.27
2024-03-09T18:48:02.739Z,6.89
2024-03-09T18:50:30.703Z,6.94
2024-03-09T18:53:01.846Z,6.79
2024-03-09T18:55:31.039Z,6.71
2024-03-09T18:58:01.081Z,6.52
2024-03-09T19:00:32.499Z,6.56
2024-03-09T19:03:00.784Z,6.61
2024-03-09T19:05:28.776Z,6.33
2024-03-09T19:07:57.101Z,6.58
2024-03-09T19:10:24.714Z,6.35
2024-03-09T19:12:53.088Z,6.48
2024-03-09T19:15:21.098Z,6.39
2024-03-09T19:17:52.396Z,6.57
2024-03-09T19:20:34.914Z,6.22
2024-03-09T19:23:02.636Z,6.19
2024-03-09T19:25:31.785Z,6.17
2024-03-09T19:28:00.099Z,6.10
2024-03-09T19:30:30.282Z,6.16
2024-03-09T19:32:58.679Z,6.26
2024-03-09T19:35:27.883Z,6.25
2024-03-09T19:37:59.392Z,6.24
2024-03-09T19:40:28.057Z,6.30
2024-03-09T19:42:56.115Z,6.01
2024-03-09T19:45:24.179Z,6.08
2024-03-09T19:47:54.954Z,6.00
2024-03-09T19:50:22.789Z,6.10
2024-03-09T19:52:50.627Z,6.05
2024-03-09T19:55:20.525Z,6.04
2024-03-09T19:57:48.678Z,5.92
2024-03-09T20:00:20.284Z,5.91
2024-03-09T20:02:53.999Z,6.03
2024-03-09T20:05:26.463Z,6.10
2024-03-09T20:07:57.645Z,5.98
2024-03-09T20:10:26.060Z,6.12
2024-03-09T20:12:56.425Z,5.95
2024-03-09T20:15:26.616Z,6.11
2024-03-09T20:17:57.504Z,5.95
2024-03-09T20:20:26.186Z,6.22
2024-03-09T20:22:57.009Z,6.22
2024-03-09T20:25:24.767Z,6.12
2024-03-09T20:27:52.173Z,6.01
2024-03-09T20:30:21.217Z,5.87
2024-03-09T20:32:49.207Z,5.94
2024-03-09T20:35:17.246Z,5.89
2024-03-09T20:37:45.808Z,5.77
2024-03-09T20:40:17.049Z,5.93
2024-03-09T20:42:49.642Z,6.02
2024-03-09T20:45:18.609Z,6.18
2024-03-09T20:47:46.543Z,5.92
2024-03-09T20:50:18.061Z,5.90
2024-03-09T20:52:53.918Z,5.97
2024-03-09T20:55:22.055Z,6.11
2024-03-09T20:57:49.501Z,6.15
2024-03-09T21:00:24.184Z,6.08
2024-03-09T21:02:52.444Z,6.13
2024-03-09T21:05:20.124Z,6.07
2024-03-09T21:07:47.856Z,5.94
2024-03-09T21:10:15.440Z,6.13
2024-03-09T21:12:42.958Z,6.07
2024-03-09T21:15:10.858Z,5.80
2024-03-09T21:17:38.787Z,5.77
2024-03-09T21:20:13.194Z,5.92
2024-03-09T21:22:41.853Z,6.15
2024-03-09T21:25:13.336Z,6.09
2024-03-09T21:27:44.200Z,6.09
2024-03-09T21:30:15.827Z,6.12
2024-03-09T21:32:48.296Z,5.99
2024-03-09T21:35:17.474Z,5.88
2024-03-09T21:37:47.376Z,5.95
2024-03-09T21:40:15.587Z,5.92
2024-03-09T21:42:44.283Z,5.94
2024-03-09T21:45:12.757Z,5.98
2024-03-09T21:47:40.679Z,6.00
2024-03-09T21:50:12.876Z,5.80
2024-03-09T21:52:41.820Z,5.90
2024-03-09T21:55:11.429Z,5.95
2024-03-09T21:57:40.412Z,5.67
2024-03-09T22:00:27.274Z,5.76
2024-03-09T22:02:56.019Z,6.00
2024-03-09T22:05:26.490Z,5.77
2024-03-09T22:07:54.453Z,5.80
2024-03-09T22:10:22.271Z,5.90
2024-03-09T22:12:51.983Z,6.12
2024-03-09T22:15:19.292Z,6.00
2024-03-09T22:17:46.552Z,5.87
2024-03-09T22:20:14.569Z,5.81
2024-03-09T22:22:49.010Z,5.77
2024-03-09T22:25:17.065Z,5.87
2024-03-09T22:27:44.674Z,5.68
2024-03-09T22:30:13.129Z,5.85
2024-03-09T22:32:41.775Z,5.69
2024-03-09T22:35:12.590Z,5.64
2024-03-09T22:37:40.413Z,5.53
2024-03-09T22:40:08.844Z,5.69
2024-03-09T22:42:39.767Z,5.74
2024-03-09T22:45:09.086Z,5.79
2024-03-09T22:47:37.148Z,5.94
2024-03-09T22:50:08.397Z,6.07
2024-03-09T22:52:35.817Z,6.05
2024-03-09T22:55:05.230Z,6.08
2024-03-09T22:57:32.896Z,6.04
2024-03-09T23:00:00.071Z,5.84
2024-03-09T23:02:27.413Z,5.60
2024-03-09T23:04:55.191Z,5.69
2024-03-09T23:07:22.835Z,6.03
2024-03-09T23:09:50.071Z,5.89
2024-03-09T23:12:19.271Z,5.93
2024-03-09T23:14:46.626Z,6.10
2024-03-09T23:17:13.864Z,5.78
2024-03-09T23:19:41.462Z,5.91
2024-03-09T23:22:08.759Z,5.78
2024-03-09T23:24:35.964Z,5.92
2024-03-09T23:27:03.308Z,5.74
2024-03-09T23:29:33.901Z,5.83
2024-03-09T23:32:01.610Z,5.78
2024-03-09T23:34:31.762Z,5.82
2024-03-09T23:36:59.077Z,5.73
2024-03-09T23:39:26.891Z,5.77
2024-03-09T23:41:56.317Z,5.74
2024-03-09T23:44:23.738Z,5.73
2024-03-09T23:46:51.724Z,5.78
2024-03-09T23:49:19.024Z,5.84
2024-03-09T23:51:46.292Z,5.69
2024-03-09T23:54:14.865Z,5.62
2024-03-09T23:56:43.456Z,5.66
2024-03-09T23:59:10.858Z,5.97
